sensor_id;sensor_type;location;lat;lon;timestamp;temperature;humidity
21259;DHT22;10787;53.364;-1.480;2023-05-07T00:02:29;14.30;1.00
21259;DHT22;10787;53.364;-1.480;2023-05-07T00:05:14;14.30;1.00
21259;DHT22;10787;53.364;-1.480;2023-05-07T00:07:59;14.30;1.00
21259;DHT22;10787;53.364;-1.480;2023-05-07T00:10:44;14.30;1.00
21259;DHT22;10787;53.364;-1.480;2023-05-07T00:13:28;14.30;1.00
21259;DHT22;10787;53.364;-1.480;2023-05-07T00:16:19;14.30;1.00
21259;DHT22;10787;53.364;-1.480;2023-05-07T00:19:04;14.30;1.00
21259;DHT22;10787;53.364;-1.480;2023-05-07T00:21:48;14.20;1.00
21259;DHT22;10787;53.364;-1.480;2023-05-07T00:24:32;14.30;1.00
21259;DHT22;10787;53.364;-1.480;2023-05-07T00:27:17;14.20;1.00
21259;DHT22;10787;53.364;-1.480;2023-05-07T00:30:01;14.20;1.00
21259;DHT22;10787;53.364;-1.480;2023-05-07T00:32:46;14.20;64.20
21259;DHT22;10787;53.364;-1.480;2023-05-07T00:35:32;14.20;99.90
21259;DHT22;10787;53.364;-1.480;2023-05-07T00:38:16;14.20;17.00
21259;DHT22;10787;53.364;-1.480;2023-05-07T00:41:00;14.20;1.00
21259;DHT22;10787;53.364;-1.480;2023-05-07T00:43:46;14.20;1.00
21259;DHT22;10787;53.364;-1.480;2023-05-07T00:46:31;14.20;1.00
21259;DHT22;10787;53.364;-1.480;2023-05-07T00:49:17;14.20;1.00
21259;DHT22;10787;53.364;-1.480;2023-05-07T00:52:02;14.20;1.00
21259;DHT22;10787;53.364;-1.480;2023-05-07T00:54:47;14.20;1.00
21259;DHT22;10787;53.364;-1.480;2023-05-07T00:57:40;14.20;1.00
21259;DHT22;10787;53.364;-1.480;2023-05-07T01:00:24;14.20;1.00
21259;DHT22;10787;53.364;-1.480;2023-05-07T01:03:09;14.20;1.00
21259;DHT22;10787;53.364;-1.480;2023-05-07T01:05:54;14.20;1.00
21259;DHT22;10787;53.364;-1.480;2023-05-07T01:08:39;14.20;1.00
21259;DHT22;10787;53.364;-1.480;2023-05-07T01:11:25;14.20;1.00
21259;DHT22;10787;53.364;-1.480;2023-05-07T01:14:10;14.20;1.00
21259;DHT22;10787;53.364;-1.480;2023-05-07T01:16:54;14.20;1.00
21259;DHT22;10787;53.364;-1.480;2023-05-07T01:19:39;14.20;1.00
21259;DHT22;10787;53.364;-1.480;2023-05-07T01:22:36;14.10;1.00
21259;DHT22;10787;53.364;-1.480;2023-05-07T01:25:21;14.10;1.00
21259;DHT22;10787;53.364;-1.480;2023-05-07T01:28:06;14.10;1.00
21259;DHT22;10787;53.364;-1.480;2023-05-07T01:30:53;14.10;30.20
21259;DHT22;10787;53.364;-1.480;2023-05-07T01:33:40;14.10;1.00
21259;DHT22;10787;53.364;-1.480;2023-05-07T01:36:28;14.00;99.90
21259;DHT22;10787;53.364;-1.480;2023-05-07T01:39:13;14.00;1.00
21259;DHT22;10787;53.364;-1.480;2023-05-07T01:41:59;14.10;99.90
21259;DHT22;10787;53.364;-1.480;2023-05-07T01:44:44;14.10;1.00
21259;DHT22;10787;53.364;-1.480;2023-05-07T01:47:29;14.10;99.90
21259;DHT22;10787;53.364;-1.480;2023-05-07T01:50:16;14.10;1.00
21259;DHT22;10787;53.364;-1.480;2023-05-07T01:53:01;14.00;99.90
21259;DHT22;10787;53.364;-1.480;2023-05-07T01:55:46;14.00;99.90
21259;DHT22;10787;53.364;-1.480;2023-05-07T01:58:30;14.00;1.00
21259;DHT22;10787;53.364;-1.480;2023-05-07T02:01:15;14.00;1.00
21259;DHT22;10787;53.364;-1.480;2023-05-07T02:03:59;14.00;99.90
21259;DHT22;10787;53.364;-1.480;2023-05-07T02:06:43;14.00;1.00
21259;DHT22;10787;53.364;-1.480;2023-05-07T02:09:27;13.90;1.00
21259;DHT22;10787;53.364;-1.480;2023-05-07T02:12:12;14.00;99.90
21259;DHT22;10787;53.364;-1.480;2023-05-07T02:14:56;14.00;1.00
21259;DHT22;10787;53.364;-1.480;2023-05-07T02:18:04;14.00;1.00
21259;DHT22;10787;53.364;-1.480;2023-05-07T02:20:50;14.00;99.90
21259;DHT22;10787;53.364;-1.480;2023-05-07T02:23:34;14.00;99.90
21259;DHT22;10787;53.364;-1.480;2023-05-07T02:26:18;14.00;93.30
21259;DHT22;10787;53.364;-1.480;2023-05-07T02:29:03;14.00;99.90
21259;DHT22;10787;53.364;-1.480;2023-05-07T02:31:47;14.00;99.90
21259;DHT22;10787;53.364;-1.480;2023-05-07T02:34:34;14.00;99.90
21259;DHT22;10787;53.364;-1.480;2023-05-07T02:37:19;14.00;99.90
21259;DHT22;10787;53.364;-1.480;2023-05-07T02:40:03;14.00;99.90
21259;DHT22;10787;53.364;-1.480;2023-05-07T02:42:48;14.00;99.90
21259;DHT22;10787;53.364;-1.480;2023-05-07T02:45:33;14.10;99.90
21259;DHT22;10787;53.364;-1.480;2023-05-07T02:48:17;14.10;99.90
21259;DHT22;10787;53.364;-1.480;2023-05-07T02:51:02;14.00;99.90
21259;DHT22;10787;53.364;-1.480;2023-05-07T02:53:47;14.00;91.50
21259;DHT22;10787;53.364;-1.480;2023-05-07T02:56:31;14.00;99.90
21259;DHT22;10787;53.364;-1.480;2023-05-07T02:59:15;14.00;1.00
21259;DHT22;10787;53.364;-1.480;2023-05-07T03:01:59;14.00;1.00
21259;DHT22;10787;53.364;-1.480;2023-05-07T03:04:43;13.90;99.90
21259;DHT22;10787;53.364;-1.480;2023-05-07T03:07:28;13.90;99.90
21259;DHT22;10787;53.364;-1.480;2023-05-07T03:10:12;13.90;99.90
21259;DHT22;10787;53.364;-1.480;2023-05-07T03:12:57;13.90;1.00
21259;DHT22;10787;53.364;-1.480;2023-05-07T03:15:41;13.90;99.90
21259;DHT22;10787;53.364;-1.480;2023-05-07T03:18:26;13.90;99.90
21259;DHT22;10787;53.364;-1.480;2023-05-07T03:21:10;13.90;1.00
21259;DHT22;10787;53.364;-1.480;2023-05-07T03:23:55;13.90;1.00
21259;DHT22;10787;53.364;-1.480;2023-05-07T03:26:39;13.90;1.00
21259;DHT22;10787;53.364;-1.480;2023-05-07T03:29:23;13.90;1.00
21259;DHT22;10787;53.364;-1.480;2023-05-07T03:32:07;13.90;1.00
21259;DHT22;10787;53.364;-1.480;2023-05-07T03:34:51;13.90;1.00
21259;DHT22;10787;53.364;-1.480;2023-05-07T03:37:37;13.90;1.00
21259;DHT22;10787;53.364;-1.480;2023-05-07T03:40:22;13.90;1.00
21259;DHT22;10787;53.364;-1.480;2023-05-07T03:43:06;13.90;1.00
21259;DHT22;10787;53.364;-1.480;2023-05-07T03:45:50;13.90;1.00
21259;DHT22;10787;53.364;-1.480;2023-05-07T03:48:34;13.90;1.00
21259;DHT22;10787;53.364;-1.480;2023-05-07T03:51:19;13.90;1.00
21259;DHT22;10787;53.364;-1.480;2023-05-07T03:54:04;13.90;1.00
21259;DHT22;10787;53.364;-1.480;2023-05-07T03:56:48;13.90;1.00
21259;DHT22;10787;53.364;-1.480;2023-05-07T03:59:32;13.90;1.00
21259;DHT22;10787;53.364;-1.480;2023-05-07T04:02:16;13.90;1.00
21259;DHT22;10787;53.364;-1.480;2023-05-07T04:05:01;13.80;1.00
21259;DHT22;10787;53.364;-1.480;2023-05-07T04:07:45;13.80;1.00
21259;DHT22;10787;53.364;-1.480;2023-05-07T04:10:30;13.80;1.00
21259;DHT22;10787;53.364;-1.480;2023-05-07T04:13:14;13.80;1.00
21259;DHT22;10787;53.364;-1.480;2023-05-07T04:15:58;13.80;1.00
21259;DHT22;10787;53.364;-1.480;2023-05-07T04:18:42;13.80;1.00
21259;DHT22;10787;53.364;-1.480;2023-05-07T04:21:26;13.80;1.00
21259;DHT22;10787;53.364;-1.480;2023-05-07T04:24:10;13.80;1.00
21259;DHT22;10787;53.364;-1.480;2023-05-07T04:26:55;13.80;1.00
21259;DHT22;10787;53.364;-1.480;2023-05-07T04:29:39;13.80;1.00
21259;DHT22;10787;53.364;-1.480;2023-05-07T04:32:26;13.80;1.00
21259;DHT22;10787;53.364;-1.480;2023-05-07T04:35:10;13.90;28.80
21259;DHT22;10787;53.364;-1.480;2023-05-07T04:37:55;13.90;99.90
21259;DHT22;10787;53.364;-1.480;2023-05-07T04:40:39;13.90;99.90
21259;DHT22;10787;53.364;-1.480;2023-05-07T04:43:24;13.90;99.90
21259;DHT22;10787;53.364;-1.480;2023-05-07T04:46:08;13.90;99.90
21259;DHT22;10787;53.364;-1.480;2023-05-07T04:48:52;13.90;99.90
21259;DHT22;10787;53.364;-1.480;2023-05-07T04:51:37;13.90;99.90
21259;DHT22;10787;53.364;-1.480;2023-05-07T04:54:22;13.90;99.90
21259;DHT22;10787;53.364;-1.480;2023-05-07T04:57:06;13.90;99.90
21259;DHT22;10787;53.364;-1.480;2023-05-07T04:59:51;13.90;99.90
21259;DHT22;10787;53.364;-1.480;2023-05-07T05:02:35;14.00;99.90
21259;DHT22;10787;53.364;-1.480;2023-05-07T05:05:19;14.00;99.90
21259;DHT22;10787;53.364;-1.480;2023-05-07T05:08:13;14.00;99.90
21259;DHT22;10787;53.364;-1.480;2023-05-07T05:10:57;14.10;99.90
21259;DHT22;10787;53.364;-1.480;2023-05-07T05:13:51;14.10;1.00
21259;DHT22;10787;53.364;-1.480;2023-05-07T05:16:35;14.10;99.90
21259;DHT22;10787;53.364;-1.480;2023-05-07T05:19:19;14.20;99.90
21259;DHT22;10787;53.364;-1.480;2023-05-07T05:22:04;14.20;99.90
21259;DHT22;10787;53.364;-1.480;2023-05-07T05:24:48;14.20;99.90
21259;DHT22;10787;53.364;-1.480;2023-05-07T05:27:34;14.20;99.90
21259;DHT22;10787;53.364;-1.480;2023-05-07T05:30:18;14.30;1.00
21259;DHT22;10787;53.364;-1.480;2023-05-07T05:33:03;14.30;1.00
21259;DHT22;10787;53.364;-1.480;2023-05-07T05:35:49;14.40;99.90
21259;DHT22;10787;53.364;-1.480;2023-05-07T05:38:33;14.50;99.90
21259;DHT22;10787;53.364;-1.480;2023-05-07T05:41:18;14.50;1.00
21259;DHT22;10787;53.364;-1.480;2023-05-07T05:44:02;14.60;1.00
21259;DHT22;10787;53.364;-1.480;2023-05-07T05:46:46;14.60;1.00
21259;DHT22;10787;53.364;-1.480;2023-05-07T05:49:30;14.70;1.00
21259;DHT22;10787;53.364;-1.480;2023-05-07T05:52:14;14.70;1.00
21259;DHT22;10787;53.364;-1.480;2023-05-07T05:55:00;14.70;1.00
21259;DHT22;10787;53.364;-1.480;2023-05-07T05:57:45;14.80;1.00
21259;DHT22;10787;53.364;-1.480;2023-05-07T06:00:30;14.80;99.90
21259;DHT22;10787;53.364;-1.480;2023-05-07T06:03:14;14.80;99.90
21259;DHT22;10787;53.364;-1.480;2023-05-07T06:05:58;14.90;99.90
21259;DHT22;10787;53.364;-1.480;2023-05-07T06:08:43;15.00;99.90
21259;DHT22;10787;53.364;-1.480;2023-05-07T06:11:28;15.10;99.90
21259;DHT22;10787;53.364;-1.480;2023-05-07T06:14:12;15.10;99.90
21259;DHT22;10787;53.364;-1.480;2023-05-07T06:16:57;15.20;99.90
21259;DHT22;10787;53.364;-1.480;2023-05-07T06:19:41;15.30;99.90
21259;DHT22;10787;53.364;-1.480;2023-05-07T06:22:25;15.30;99.90
21259;DHT22;10787;53.364;-1.480;2023-05-07T06:25:09;15.40;99.90
21259;DHT22;10787;53.364;-1.480;2023-05-07T06:27:54;15.50;99.90
21259;DHT22;10787;53.364;-1.480;2023-05-07T06:30:38;15.60;99.90
21259;DHT22;10787;53.364;-1.480;2023-05-07T06:33:23;15.50;99.90
21259;DHT22;10787;53.364;-1.480;2023-05-07T06:36:08;15.60;99.90
21259;DHT22;10787;53.364;-1.480;2023-05-07T06:38:53;15.70;99.90
21259;DHT22;10787;53.364;-1.480;2023-05-07T06:41:37;15.80;92.10
21259;DHT22;10787;53.364;-1.480;2023-05-07T06:44:21;15.80;99.90
21259;DHT22;10787;53.364;-1.480;2023-05-07T06:47:05;15.80;99.40
21259;DHT22;10787;53.364;-1.480;2023-05-07T06:49:50;15.90;80.80
21259;DHT22;10787;53.364;-1.480;2023-05-07T06:52:34;15.90;75.30
21259;DHT22;10787;53.364;-1.480;2023-05-07T06:55:19;16.00;75.50
21259;DHT22;10787;53.364;-1.480;2023-05-07T06:58:04;16.10;34.80
21259;DHT22;10787;53.364;-1.480;2023-05-07T07:00:49;16.00;35.80
21259;DHT22;10787;53.364;-1.480;2023-05-07T07:03:34;16.00;29.90
21259;DHT22;10787;53.364;-1.480;2023-05-07T07:06:19;16.20;30.90
21259;DHT22;10787;53.364;-1.480;2023-05-07T07:09:03;16.30;24.00
21259;DHT22;10787;53.364;-1.480;2023-05-07T07:11:47;16.40;24.40
21259;DHT22;10787;53.364;-1.480;2023-05-07T07:14:31;16.50;18.40
21259;DHT22;10787;53.364;-1.480;2023-05-07T07:17:15;16.60;24.00
21259;DHT22;10787;53.364;-1.480;2023-05-07T07:19:59;16.70;7.60
21259;DHT22;10787;53.364;-1.480;2023-05-07T07:22:43;16.80;19.70
21259;DHT22;10787;53.364;-1.480;2023-05-07T07:25:28;17.00;1.00
21259;DHT22;10787;53.364;-1.480;2023-05-07T07:28:12;17.10;1.00
21259;DHT22;10787;53.364;-1.480;2023-05-07T07:30:56;17.10;1.00
21259;DHT22;10787;53.364;-1.480;2023-05-07T07:33:41;17.30;1.00
21259;DHT22;10787;53.364;-1.480;2023-05-07T07:36:25;17.30;1.00
21259;DHT22;10787;53.364;-1.480;2023-05-07T07:39:10;17.20;1.00
21259;DHT22;10787;53.364;-1.480;2023-05-07T07:41:55;17.20;1.00
21259;DHT22;10787;53.364;-1.480;2023-05-07T07:44:39;17.20;1.00
21259;DHT22;10787;53.364;-1.480;2023-05-07T07:47:23;17.30;1.00
21259;DHT22;10787;53.364;-1.480;2023-05-07T07:50:08;17.20;1.00
21259;DHT22;10787;53.364;-1.480;2023-05-07T07:52:52;17.20;1.00
21259;DHT22;10787;53.364;-1.480;2023-05-07T07:55:40;17.30;1.00
21259;DHT22;10787;53.364;-1.480;2023-05-07T07:58:25;17.40;1.00
21259;DHT22;10787;53.364;-1.480;2023-05-07T08:01:09;17.40;1.00
21259;DHT22;10787;53.364;-1.480;2023-05-07T08:03:53;17.40;1.00
21259;DHT22;10787;53.364;-1.480;2023-05-07T08:06:38;17.40;1.00
21259;DHT22;10787;53.364;-1.480;2023-05-07T08:09:22;17.30;1.00
21259;DHT22;10787;53.364;-1.480;2023-05-07T08:12:07;17.30;1.00
21259;DHT22;10787;53.364;-1.480;2023-05-07T08:14:52;17.30;1.00
21259;DHT22;10787;53.364;-1.480;2023-05-07T08:17:36;17.40;1.00
21259;DHT22;10787;53.364;-1.480;2023-05-07T08:20:21;17.60;1.00
21259;DHT22;10787;53.364;-1.480;2023-05-07T08:23:05;17.90;1.00
21259;DHT22;10787;53.364;-1.480;2023-05-07T08:25:53;18.20;1.00
21259;DHT22;10787;53.364;-1.480;2023-05-07T08:28:37;18.20;1.00
21259;DHT22;10787;53.364;-1.480;2023-05-07T08:31:21;18.20;1.00
21259;DHT22;10787;53.364;-1.480;2023-05-07T08:34:06;18.10;1.00
21259;DHT22;10787;53.364;-1.480;2023-05-07T08:36:50;18.10;1.00
21259;DHT22;10787;53.364;-1.480;2023-05-07T08:39:35;18.00;1.00
21259;DHT22;10787;53.364;-1.480;2023-05-07T08:42:20;18.10;1.00
21259;DHT22;10787;53.364;-1.480;2023-05-07T08:45:09;18.20;1.00
21259;DHT22;10787;53.364;-1.480;2023-05-07T08:48:05;18.30;1.00
21259;DHT22;10787;53.364;-1.480;2023-05-07T08:50:52;18.40;1.00
21259;DHT22;10787;53.364;-1.480;2023-05-07T08:53:40;18.50;1.00
21259;DHT22;10787;53.364;-1.480;2023-05-07T08:56:25;18.70;1.00
21259;DHT22;10787;53.364;-1.480;2023-05-07T08:59:10;18.90;1.00
21259;DHT22;10787;53.364;-1.480;2023-05-07T09:01:54;19.20;1.00
21259;DHT22;10787;53.364;-1.480;2023-05-07T09:04:39;19.40;1.00
21259;DHT22;10787;53.364;-1.480;2023-05-07T09:07:24;19.60;1.00
21259;DHT22;10787;53.364;-1.480;2023-05-07T09:10:09;19.60;1.00
21259;DHT22;10787;53.364;-1.480;2023-05-07T09:12:53;19.80;1.00
21259;DHT22;10787;53.364;-1.480;2023-05-07T09:15:38;19.60;1.00
21259;DHT22;10787;53.364;-1.480;2023-05-07T09:18:24;19.40;1.00
21259;DHT22;10787;53.364;-1.480;2023-05-07T09:21:18;19.40;1.00
21259;DHT22;10787;53.364;-1.480;2023-05-07T09:24:02;19.30;1.00
21259;DHT22;10787;53.364;-1.480;2023-05-07T09:26:47;19.20;1.00
21259;DHT22;10787;53.364;-1.480;2023-05-07T09:29:31;19.10;1.00
21259;DHT22;10787;53.364;-1.480;2023-05-07T09:32:22;19.30;1.00
21259;DHT22;10787;53.364;-1.480;2023-05-07T09:35:06;19.40;1.00
21259;DHT22;10787;53.364;-1.480;2023-05-07T09:37:59;19.20;1.00
21259;DHT22;10787;53.364;-1.480;2023-05-07T09:40:43;19.30;1.00
21259;DHT22;10787;53.364;-1.480;2023-05-07T09:43:32;19.50;1.00
21259;DHT22;10787;53.364;-1.480;2023-05-07T09:46:18;19.60;1.00
21259;DHT22;10787;53.364;-1.480;2023-05-07T09:49:12;19.70;1.00
21259;DHT22;10787;53.364;-1.480;2023-05-07T09:52:00;19.60;1.00
21259;DHT22;10787;53.364;-1.480;2023-05-07T09:54:45;19.40;1.00
21259;DHT22;10787;53.364;-1.480;2023-05-07T09:57:32;19.40;1.00
21259;DHT22;10787;53.364;-1.480;2023-05-07T10:00:20;19.50;1.00
21259;DHT22;10787;53.364;-1.480;2023-05-07T10:03:06;19.60;1.00
21259;DHT22;10787;53.364;-1.480;2023-05-07T10:05:51;19.70;1.00
21259;DHT22;10787;53.364;-1.480;2023-05-07T10:08:36;19.50;1.00
21259;DHT22;10787;53.364;-1.480;2023-05-07T10:11:22;19.50;1.00
21259;DHT22;10787;53.364;-1.480;2023-05-07T10:14:06;19.40;1.00
21259;DHT22;10787;53.364;-1.480;2023-05-07T10:16:51;19.50;1.00
21259;DHT22;10787;53.364;-1.480;2023-05-07T10:19:38;19.60;1.00
21259;DHT22;10787;53.364;-1.480;2023-05-07T10:22:24;19.70;1.00
21259;DHT22;10787;53.364;-1.480;2023-05-07T10:25:31;19.60;1.00
21259;DHT22;10787;53.364;-1.480;2023-05-07T10:28:17;19.70;1.00
21259;DHT22;10787;53.364;-1.480;2023-05-07T10:34:17;20.10;1.00
21259;DHT22;10787;53.364;-1.480;2023-05-07T10:37:04;20.00;1.00
21259;DHT22;10787;53.364;-1.480;2023-05-07T10:39:48;19.80;1.00
21259;DHT22;10787;53.364;-1.480;2023-05-07T10:42:33;19.70;1.00
21259;DHT22;10787;53.364;-1.480;2023-05-07T10:45:18;19.60;1.00
21259;DHT22;10787;53.364;-1.480;2023-05-07T10:48:09;19.60;1.00
21259;DHT22;10787;53.364;-1.480;2023-05-07T10:51:21;19.70;1.00
21259;DHT22;10787;53.364;-1.480;2023-05-07T10:56:56;20.10;1.00
21259;DHT22;10787;53.364;-1.480;2023-05-07T10:59:41;20.30;1.00
21259;DHT22;10787;53.364;-1.480;2023-05-07T11:05:44;21.10;1.00
21259;DHT22;10787;53.364;-1.480;2023-05-07T11:08:54;21.30;1.00
21259;DHT22;10787;53.364;-1.480;2023-05-07T11:11:50;21.00;1.00
21259;DHT22;10787;53.364;-1.480;2023-05-07T11:14:43;21.00;1.00
21259;DHT22;10787;53.364;-1.480;2023-05-07T11:17:27;21.10;1.00
21259;DHT22;10787;53.364;-1.480;2023-05-07T11:20:16;21.00;1.00
21259;DHT22;10787;53.364;-1.480;2023-05-07T11:23:00;21.00;1.00
21259;DHT22;10787;53.364;-1.480;2023-05-07T11:25:45;21.20;1.00
21259;DHT22;10787;53.364;-1.480;2023-05-07T11:28:31;21.20;1.00
21259;DHT22;10787;53.364;-1.480;2023-05-07T11:31:21;20.90;1.00
21259;DHT22;10787;53.364;-1.480;2023-05-07T11:34:07;21.00;1.00
21259;DHT22;10787;53.364;-1.480;2023-05-07T11:36:52;21.00;1.00
21259;DHT22;10787;53.364;-1.480;2023-05-07T11:39:37;21.40;1.00
21259;DHT22;10787;53.364;-1.480;2023-05-07T11:45:23;21.50;1.00
21259;DHT22;10787;53.364;-1.480;2023-05-07T11:48:09;21.70;1.00
21259;DHT22;10787;53.364;-1.480;2023-05-07T11:51:05;22.10;1.00
21259;DHT22;10787;53.364;-1.480;2023-05-07T11:53:50;21.90;1.00
21259;DHT22;10787;53.364;-1.480;2023-05-07T11:56:35;22.10;1.00
21259;DHT22;10787;53.364;-1.480;2023-05-07T11:59:19;22.70;1.00
21259;DHT22;10787;53.364;-1.480;2023-05-07T12:02:04;23.40;1.00
21259;DHT22;10787;53.364;-1.480;2023-05-07T12:04:48;24.20;1.00
21259;DHT22;10787;53.364;-1.480;2023-05-07T12:07:36;25.00;1.00
21259;DHT22;10787;53.364;-1.480;2023-05-07T12:10:20;25.60;1.00
21259;DHT22;10787;53.364;-1.480;2023-05-07T12:13:17;26.20;1.00
21259;DHT22;10787;53.364;-1.480;2023-05-07T12:16:01;26.70;1.00
21259;DHT22;10787;53.364;-1.480;2023-05-07T12:18:50;27.10;1.00
21259;DHT22;10787;53.364;-1.480;2023-05-07T12:21:36;27.90;1.00
21259;DHT22;10787;53.364;-1.480;2023-05-07T12:24:21;28.70;1.00
21259;DHT22;10787;53.364;-1.480;2023-05-07T12:27:06;28.20;1.00
21259;DHT22;10787;53.364;-1.480;2023-05-07T12:29:51;28.50;1.00
21259;DHT22;10787;53.364;-1.480;2023-05-07T12:32:36;28.30;1.00
21259;DHT22;10787;53.364;-1.480;2023-05-07T12:35:28;28.30;1.00
21259;DHT22;10787;53.364;-1.480;2023-05-07T12:38:15;28.20;1.00
21259;DHT22;10787;53.364;-1.480;2023-05-07T12:41:00;28.60;1.00
21259;DHT22;10787;53.364;-1.480;2023-05-07T12:43:45;28.70;1.00
21259;DHT22;10787;53.364;-1.480;2023-05-07T12:46:30;28.10;1.00
21259;DHT22;10787;53.364;-1.480;2023-05-07T12:49:14;27.80;1.00
21259;DHT22;10787;53.364;-1.480;2023-05-07T12:51:59;28.50;1.00
21259;DHT22;10787;53.364;-1.480;2023-05-07T12:54:44;29.20;1.00
21259;DHT22;10787;53.364;-1.480;2023-05-07T12:57:28;29.90;1.00
21259;DHT22;10787;53.364;-1.480;2023-05-07T13:00:13;31.00;1.00
21259;DHT22;10787;53.364;-1.480;2023-05-07T13:02:58;31.00;1.00
21259;DHT22;10787;53.364;-1.480;2023-05-07T13:05:43;31.00;1.00
21259;DHT22;10787;53.364;-1.480;2023-05-07T13:08:29;31.10;7.20
21259;DHT22;10787;53.364;-1.480;2023-05-07T13:11:14;31.00;7.90
21259;DHT22;10787;53.364;-1.480;2023-05-07T13:13:58;32.10;48.90
21259;DHT22;10787;53.364;-1.480;2023-05-07T13:16:43;32.70;81.60
21259;DHT22;10787;53.364;-1.480;2023-05-07T13:19:27;31.90;29.70
21259;DHT22;10787;53.364;-1.480;2023-05-07T13:22:12;31.20;10.00
21259;DHT22;10787;53.364;-1.480;2023-05-07T13:24:56;30.70;59.00
21259;DHT22;10787;53.364;-1.480;2023-05-07T13:27:40;30.90;39.50
21259;DHT22;10787;53.364;-1.480;2023-05-07T13:30:25;30.10;19.00
21259;DHT22;10787;53.364;-1.480;2023-05-07T13:33:09;28.40;6.60
21259;DHT22;10787;53.364;-1.480;2023-05-07T13:35:54;28.20;1.00
21259;DHT22;10787;53.364;-1.480;2023-05-07T13:38:41;27.90;6.80
21259;DHT22;10787;53.364;-1.480;2023-05-07T13:41:25;27.60;1.00
21259;DHT22;10787;53.364;-1.480;2023-05-07T13:44:09;27.20;1.00
21259;DHT22;10787;53.364;-1.480;2023-05-07T13:46:54;26.50;1.00
21259;DHT22;10787;53.364;-1.480;2023-05-07T13:49:38;25.90;1.00
21259;DHT22;10787;53.364;-1.480;2023-05-07T13:52:23;26.00;1.00
21259;DHT22;10787;53.364;-1.480;2023-05-07T13:55:07;27.40;1.00
21259;DHT22;10787;53.364;-1.480;2023-05-07T13:57:57;29.40;7.40
21259;DHT22;10787;53.364;-1.480;2023-05-07T14:00:41;31.00;30.80
21259;DHT22;10787;53.364;-1.480;2023-05-07T14:03:25;32.20;52.20
21259;DHT22;10787;53.364;-1.480;2023-05-07T14:06:09;32.50;82.30
21259;DHT22;10787;53.364;-1.480;2023-05-07T14:08:54;31.40;60.70
21259;DHT22;10787;53.364;-1.480;2023-05-07T14:11:39;30.00;48.00
21259;DHT22;10787;53.364;-1.480;2023-05-07T14:14:24;30.00;44.10
21259;DHT22;10787;53.364;-1.480;2023-05-07T14:17:08;30.10;35.30
21259;DHT22;10787;53.364;-1.480;2023-05-07T14:19:53;31.00;61.70
21259;DHT22;10787;53.364;-1.480;2023-05-07T14:22:38;31.00;69.20
21259;DHT22;10787;53.364;-1.480;2023-05-07T14:25:22;30.20;19.30
21259;DHT22;10787;53.364;-1.480;2023-05-07T14:28:07;28.70;2.60
21259;DHT22;10787;53.364;-1.480;2023-05-07T14:30:51;27.80;4.90
21259;DHT22;10787;53.364;-1.480;2023-05-07T14:33:35;28.20;2.70
21259;DHT22;10787;53.364;-1.480;2023-05-07T14:36:19;29.10;4.60
21259;DHT22;10787;53.364;-1.480;2023-05-07T14:39:05;30.50;18.90
21259;DHT22;10787;53.364;-1.480;2023-05-07T14:41:49;31.40;69.10
21259;DHT22;10787;53.364;-1.480;2023-05-07T14:44:35;31.30;50.50
21259;DHT22;10787;53.364;-1.480;2023-05-07T14:47:19;31.60;68.50
21259;DHT22;10787;53.364;-1.480;2023-05-07T14:50:04;32.20;47.90
21259;DHT22;10787;53.364;-1.480;2023-05-07T14:52:48;32.60;67.10
21259;DHT22;10787;53.364;-1.480;2023-05-07T14:55:32;32.90;59.20
21259;DHT22;10787;53.364;-1.480;2023-05-07T14:58:16;33.40;93.50
21259;DHT22;10787;53.364;-1.480;2023-05-07T15:01:00;32.90;90.30
21259;DHT22;10787;53.364;-1.480;2023-05-07T15:03:45;33.70;78.20
21259;DHT22;10787;53.364;-1.480;2023-05-07T15:06:29;33.30;99.50
21259;DHT22;10787;53.364;-1.480;2023-05-07T15:09:14;32.80;54.00
21259;DHT22;10787;53.364;-1.480;2023-05-07T15:11:58;32.80;57.90
21259;DHT22;10787;53.364;-1.480;2023-05-07T15:14:43;33.30;83.90
21259;DHT22;10787;53.364;-1.480;2023-05-07T15:17:27;33.00;95.90
21259;DHT22;10787;53.364;-1.480;2023-05-07T15:20:11;32.70;93.20
21259;DHT22;10787;53.364;-1.480;2023-05-07T15:22:56;32.70;7.60
21259;DHT22;10787;53.364;-1.480;2023-05-07T15:25:41;32.00;36.70
21259;DHT22;10787;53.364;-1.480;2023-05-07T15:28:25;31.90;41.40
21259;DHT22;10787;53.364;-1.480;2023-05-07T15:31:09;32.20;28.10
21259;DHT22;10787;53.364;-1.480;2023-05-07T15:33:54;32.00;99.90
21259;DHT22;10787;53.364;-1.480;2023-05-07T15:36:38;31.40;99.90
21259;DHT22;10787;53.364;-1.480;2023-05-07T15:39:22;31.80;99.90
21259;DHT22;10787;53.364;-1.480;2023-05-07T15:42:07;32.00;99.90
21259;DHT22;10787;53.364;-1.480;2023-05-07T15:44:51;31.60;99.90
21259;DHT22;10787;53.364;-1.480;2023-05-07T15:47:36;30.40;94.40
21259;DHT22;10787;53.364;-1.480;2023-05-07T15:50:20;28.90;71.30
21259;DHT22;10787;53.364;-1.480;2023-05-07T15:53:05;27.50;37.00
21259;DHT22;10787;53.364;-1.480;2023-05-07T15:55:50;26.40;35.80
21259;DHT22;10787;53.364;-1.480;2023-05-07T15:58:35;25.40;26.20
21259;DHT22;10787;53.364;-1.480;2023-05-07T16:01:19;25.80;32.10
21259;DHT22;10787;53.364;-1.480;2023-05-07T16:04:03;27.50;55.80
21259;DHT22;10787;53.364;-1.480;2023-05-07T16:06:48;29.50;91.70
21259;DHT22;10787;53.364;-1.480;2023-05-07T16:09:32;30.90;95.50
21259;DHT22;10787;53.364;-1.480;2023-05-07T16:12:17;30.70;87.70
21259;DHT22;10787;53.364;-1.480;2023-05-07T16:15:02;30.20;77.30
21259;DHT22;10787;53.364;-1.480;2023-05-07T16:17:47;28.70;57.40
21259;DHT22;10787;53.364;-1.480;2023-05-07T16:20:32;27.50;42.50
21259;DHT22;10787;53.364;-1.480;2023-05-07T16:23:17;27.30;18.00
21259;DHT22;10787;53.364;-1.480;2023-05-07T16:26:02;28.40;42.30
21259;DHT22;10787;53.364;-1.480;2023-05-07T16:28:47;30.00;62.50
21259;DHT22;10787;53.364;-1.480;2023-05-07T16:31:32;31.50;99.90
21259;DHT22;10787;53.364;-1.480;2023-05-07T16:34:16;31.90;96.20
21259;DHT22;10787;53.364;-1.480;2023-05-07T16:37:02;32.50;95.20
21259;DHT22;10787;53.364;-1.480;2023-05-07T16:39:46;31.90;99.90
21259;DHT22;10787;53.364;-1.480;2023-05-07T16:42:34;31.10;98.80
21259;DHT22;10787;53.364;-1.480;2023-05-07T16:45:19;29.70;86.60
21259;DHT22;10787;53.364;-1.480;2023-05-07T16:48:03;27.90;61.00
21259;DHT22;10787;53.364;-1.480;2023-05-07T16:50:48;27.50;52.30
21259;DHT22;10787;53.364;-1.480;2023-05-07T16:53:33;26.90;35.50
21259;DHT22;10787;53.364;-1.480;2023-05-07T16:56:18;27.00;38.60
21259;DHT22;10787;53.364;-1.480;2023-05-07T16:59:02;28.10;53.30
21259;DHT22;10787;53.364;-1.480;2023-05-07T17:01:47;29.40;72.30
21259;DHT22;10787;53.364;-1.480;2023-05-07T17:04:31;29.70;71.10
21259;DHT22;10787;53.364;-1.480;2023-05-07T17:07:16;29.40;65.40
21259;DHT22;10787;53.364;-1.480;2023-05-07T17:10:01;28.80;60.90
21259;DHT22;10787;53.364;-1.480;2023-05-07T17:12:45;28.40;54.70
21259;DHT22;10787;53.364;-1.480;2023-05-07T17:15:29;29.40;74.10
21259;DHT22;10787;53.364;-1.480;2023-05-07T17:18:14;29.90;81.70
21259;DHT22;10787;53.364;-1.480;2023-05-07T17:20:58;30.40;80.00
21259;DHT22;10787;53.364;-1.480;2023-05-07T17:23:42;31.00;92.20
21259;DHT22;10787;53.364;-1.480;2023-05-07T17:26:26;31.20;96.40
21259;DHT22;10787;53.364;-1.480;2023-05-07T17:29:11;30.60;86.60
21259;DHT22;10787;53.364;-1.480;2023-05-07T17:31:56;30.30;85.60